createdAt,value
2022-11-05T00:00:20.240Z,7.40
2022-11-05T00:03:03.275Z,7.70
2022-11-05T00:05:49.813Z,7.63
2022-11-05T00:08:32.731Z,5.87
2022-11-05T00:11:03.031Z,5.87
2022-11-05T00:13:46.358Z,7.23
2022-11-05T00:16:35.256Z,7.03
2022-11-05T00:19:13.625Z,6.13
2022-11-05T00:22:07.308Z,7.47
2022-11-05T00:24:49.813Z,7.60
2022-11-05T00:27:20.789Z,8.03
2022-11-05T00:29:51.013Z,8.73
2022-11-05T00:32:21.023Z,7.90
2022-11-05T00:34:53.235Z,7.90
2022-11-05T00:37:26.763Z,7.97
2022-11-05T00:39:56.788Z,10.03
2022-11-05T00:42:39.955Z,8.93
2022-11-05T00:45:10.988Z,10.60
2022-11-05T00:47:55.548Z,10.20
2022-11-05T00:50:25.979Z,11.77
2022-11-05T00:53:00.975Z,11.33
2022-11-05T00:55:34.793Z,11.43
2022-11-05T00:58:10.423Z,12.43
2022-11-05T01:00:43.059Z,13.63
2022-11-05T01:03:15.665Z,11.87
2022-11-05T01:05:52.510Z,11.77
2022-11-05T01:08:27.955Z,10.70
2022-11-05T01:10:59.870Z,11.17
2022-11-05T01:13:33.425Z,10.63
2022-11-05T01:16:09.388Z,10.33
2022-11-05T01:18:42.121Z,10.90
2022-11-05T01:21:16.466Z,10.93
2022-11-05T01:23:50.809Z,6.53
2022-11-05T01:26:20.713Z,9.30
2022-11-05T01:28:55.416Z,10.53
2022-11-05T01:31:29.017Z,7.20
2022-11-05T01:33:59.212Z,9.30
2022-11-05T01:36:29.783Z,9.97
2022-11-05T01:39:02.288Z,10.40
2022-11-05T01:41:33.838Z,10.20
2022-11-05T01:44:04.112Z,9.93
2022-11-05T01:49:50.458Z,12.20
2022-11-05T01:52:21.025Z,9.93
2022-11-05T01:54:54.137Z,7.90
2022-11-05T01:57:24.369Z,12.13
2022-11-05T01:59:59.570Z,11.80
2022-11-05T02:02:30.461Z,10.70
2022-11-05T02:07:50.037Z,10.87
2022-11-05T02:10:23.602Z,9.30
2022-11-05T02:12:53.854Z,6.50
2022-11-05T02:15:30.155Z,8.03
2022-11-05T02:18:14.205Z,7.60
2022-11-05T02:20:55.947Z,8.50
2022-11-05T02:23:49.904Z,7.60
2022-11-05T02:26:49.994Z,7.93
2022-11-05T02:30:00.043Z,7.50
2022-11-05T02:32:54.161Z,6.63
2022-11-05T02:35:47.517Z,6.80
2022-11-05T02:38:27.853Z,4.80
2022-11-05T02:41:05.990Z,4.20
2022-11-05T02:43:48.443Z,6.10
2022-11-05T02:46:31.598Z,7.57
2022-11-05T02:49:11.578Z,7.47
2022-11-05T02:51:49.594Z,6.30
2022-11-05T02:54:26.342Z,6.10
2022-11-05T02:56:58.914Z,6.60
2022-11-05T02:59:29.296Z,6.13
2022-11-05T03:02:01.119Z,6.27
2022-11-05T03:04:35.419Z,6.93
2022-11-05T03:07:19.789Z,6.90
2022-11-05T03:10:07.258Z,5.77
2022-11-05T03:12:47.576Z,5.70
2022-11-05T03:15:25.127Z,6.03
2022-11-05T03:18:05.819Z,6.33
2022-11-05T03:20:43.245Z,7.67
2022-11-05T03:23:21.253Z,6.40
2022-11-05T03:25:54.345Z,5.90
2022-11-05T03:28:28.785Z,6.10
2022-11-05T03:31:01.751Z,6.43
2022-11-05T03:33:36.473Z,3.83
2022-11-05T03:36:16.199Z,5.87
2022-11-05T03:38:52.021Z,5.97
2022-11-05T03:41:24.237Z,4.67
2022-11-05T03:44:00.470Z,3.77
2022-11-05T03:46:33.253Z,3.73
2022-11-05T03:49:06.999Z,4.53
2022-11-05T03:51:47.903Z,3.93
2022-11-05T03:54:18.844Z,6.90
2022-11-05T03:56:58.843Z,4.40
2022-11-05T03:59:30.321Z,10.60
2022-11-05T04:02:00.875Z,9.33
2022-11-05T04:04:30.764Z,5.43
2022-11-05T04:07:16.322Z,5.97
2022-11-05T04:09:58.706Z,6.30
2022-11-05T04:12:41.853Z,4.40
2022-11-05T04:15:12.049Z,12.00
2022-11-05T04:17:40.255Z,4.77
2022-11-05T04:20:23.581Z,8.67
2022-11-05T04:23:14.047Z,6.50
2022-11-05T04:25:43.865Z,9.23
2022-11-05T04:28:14.414Z,9.20
2022-11-05T04:30:44.261Z,7.70
2022-11-05T04:33:17.002Z,7.77
2022-11-05T04:35:48.440Z,7.57
2022-11-05T04:38:22.896Z,7.73
2022-11-05T04:40:52.705Z,4.80
2022-11-05T04:43:24.247Z,9.40
2022-11-05T04:45:54.338Z,6.60
2022-11-05T04:48:24.771Z,8.33
2022-11-05T04:50:55.081Z,4.83
2022-11-05T04:53:28.500Z,6.60
2022-11-05T04:55:58.475Z,6.40
2022-11-05T04:58:29.019Z,6.70
2022-11-05T05:00:58.887Z,7.03
2022-11-05T05:03:29.841Z,7.43
2022-11-05T05:06:03.954Z,5.93
2022-11-05T05:08:37.689Z,7.23
2022-11-05T05:11:09.726Z,4.07
2022-11-05T05:13:40.537Z,6.63
2022-11-05T05:16:11.955Z,6.20
2022-11-05T05:18:46.071Z,6.70
2022-11-05T05:21:29.930Z,6.57
2022-11-05T05:24:02.739Z,6.00
2022-11-05T05:26:33.406Z,6.83
2022-11-05T05:29:03.591Z,6.53
2022-11-05T05:31:33.529Z,7.20
2022-11-05T05:34:03.416Z,6.77
2022-11-05T05:36:34.831Z,7.27
2022-11-05T05:39:08.205Z,7.67
2022-11-05T05:41:38.010Z,8.83
2022-11-05T05:44:12.016Z,7.33
2022-11-05T05:46:41.886Z,9.70
2022-11-05T05:49:14.448Z,8.37
2022-11-05T05:51:44.282Z,7.60
2022-11-05T05:54:17.722Z,7.07
2022-11-05T05:56:48.678Z,6.63
2022-11-05T05:59:18.563Z,7.10
2022-11-05T06:01:49.176Z,6.97
2022-11-05T06:04:19.475Z,7.43
2022-11-05T06:06:49.582Z,5.80
2022-11-05T06:09:22.207Z,8.13
2022-11-05T06:11:52.370Z,9.20
2022-11-05T06:14:22.274Z,10.20
2022-11-05T06:16:52.711Z,7.33
2022-11-05T06:19:22.580Z,9.20
2022-11-05T06:21:53.262Z,8.43
2022-11-05T06:24:26.250Z,9.23
2022-11-05T06:26:56.863Z,9.13
2022-11-05T06:29:26.773Z,7.70
2022-11-05T06:31:57.638Z,12.90
2022-11-05T06:34:27.833Z,10.97
2022-11-05T06:36:58.491Z,8.93
2022-11-05T06:39:31.215Z,5.40
2022-11-05T06:42:17.795Z,9.00
2022-11-05T06:44:48.607Z,10.80
2022-11-05T06:47:19.282Z,10.40
2022-11-05T06:49:49.754Z,9.80
2022-11-05T06:52:20.883Z,9.17
2022-11-05T06:54:53.664Z,12.20
2022-11-05T06:57:23.759Z,12.47
2022-11-05T06:59:59.969Z,13.23
2022-11-05T07:02:31.609Z,19.13
2022-11-05T07:05:03.245Z,46.23
2022-11-05T07:07:34.550Z,53.27
2022-11-05T07:10:07.702Z,59.50
2022-11-05T07:12:37.804Z,44.03
2022-11-05T07:15:09.204Z,37.40
2022-11-05T07:17:39.251Z,36.27
2022-11-05T07:20:11.458Z,86.00
2022-11-05T07:22:41.784Z,85.17
2022-11-05T07:25:15.223Z,56.67
2022-11-05T07:27:45.639Z,4.47
2022-11-05T07:30:15.801Z,50.30
2022-11-05T07:32:46.290Z,7.53
2022-11-05T07:35:16.394Z,15.07
2022-11-05T07:37:47.043Z,13.00
2022-11-05T07:40:21.350Z,7.80
2022-11-05T07:42:53.810Z,38.53
2022-11-05T07:45:24.439Z,27.70
2022-11-05T07:47:56.004Z,24.27
2022-11-05T07:50:30.248Z,24.73
2022-11-05T07:53:04.210Z,29.50
2022-11-05T07:55:37.160Z,29.53
2022-11-05T07:58:07.958Z,34.70
2022-11-05T08:00:38.135Z,11.50
2022-11-05T08:03:10.454Z,22.50
2022-11-05T08:05:44.563Z,37.23
2022-11-05T08:08:18.093Z,36.80
2022-11-05T08:10:50.768Z,49.37
2022-11-05T08:13:21.880Z,40.00
2022-11-05T08:15:51.800Z,28.10
2022-11-05T08:18:22.605Z,51.40
2022-11-05T08:20:52.752Z,48.80
2022-11-05T08:23:23.317Z,45.07
2022-11-05T08:25:56.278Z,63.90
2022-11-05T08:28:27.466Z,33.50
2022-11-05T08:30:59.112Z,133.43
2022-11-05T08:33:31.876Z,82.97
2022-11-05T08:36:05.603Z,97.10
2022-11-05T08:38:36.029Z,103.27
2022-11-05T08:41:08.941Z,29.40
2022-11-05T08:43:39.637Z,35.73
2022-11-05T08:46:09.585Z,57.67
2022-11-05T08:48:39.622Z,95.30
2022-11-05T08:51:09.633Z,42.70
2022-11-05T08:53:39.713Z,33.03
2022-11-05T08:56:12.360Z,49.70
2022-11-05T08:58:42.656Z,60.20
2022-11-05T09:01:12.612Z,29.77
2022-11-05T09:03:43.005Z,48.70
2022-11-05T09:06:13.051Z,23.77
2022-11-05T09:08:43.226Z,27.87
2022-11-05T09:11:16.606Z,55.67
2022-11-05T09:13:46.872Z,26.83
2022-11-05T09:16:22.228Z,58.47
2022-11-05T09:18:53.233Z,21.17
2022-11-05T09:21:23.524Z,42.70
2022-11-05T09:23:53.699Z,80.27
2022-11-05T09:26:26.261Z,47.27
2022-11-05T09:28:56.974Z,43.87
2022-11-05T09:31:26.968Z,37.40
2022-11-05T09:33:56.943Z,47.03
2022-11-05T09:36:26.912Z,57.13
2022-11-05T09:38:57.154Z,79.63
2022-11-05T09:41:33.274Z,64.90
2022-11-05T09:44:08.385Z,71.60
2022-11-05T09:46:44.475Z,76.50
2022-11-05T09:49:25.723Z,82.57
2022-11-05T09:51:57.155Z,43.23
2022-11-05T09:54:31.835Z,55.93
2022-11-05T09:57:06.099Z,62.30
2022-11-05T09:59:41.565Z,16.50
2022-11-05T10:02:16.593Z,59.20
2022-11-05T10:04:50.682Z,72.83
2022-11-05T10:07:27.731Z,47.37
2022-11-05T10:10:02.317Z,19.53
2022-11-05T10:12:40.131Z,12.10
2022-11-05T10:15:16.675Z,13.63
2022-11-05T10:17:51.897Z,11.43
2022-11-05T10:20:27.350Z,11.63
2022-11-05T10:23:01.627Z,14.33
2022-11-05T10:25:35.824Z,10.80
2022-11-05T10:28:10.686Z,9.97
2022-11-05T10:30:40.864Z,11.00
2022-11-05T10:33:14.793Z,8.90
2022-11-05T10:35:57.674Z,9.83
2022-11-05T10:38:27.949Z,5.90
2022-11-05T10:41:06.364Z,9.53
2022-11-05T10:43:44.506Z,9.53
2022-11-05T10:46:28.608Z,6.30
2022-11-05T10:49:20.436Z,10.60
2022-11-05T10:51:58.967Z,10.87
2022-11-05T10:54:36.438Z,11.30
2022-11-05T10:57:43.650Z,10.67
2022-11-05T11:00:29.209Z,9.70
2022-11-05T11:03:01.912Z,9.73
2022-11-05T11:05:34.269Z,10.27
2022-11-05T11:08:19.669Z,10.13
2022-11-05T11:10:53.195Z,10.30
2022-11-05T11:13:27.614Z,8.90
2022-11-05T11:16:15.856Z,10.23
2022-11-05T11:18:46.737Z,10.30
2022-11-05T11:21:19.696Z,6.83
2022-11-05T11:23:59.126Z,7.73
2022-11-05T11:26:31.519Z,7.80
2022-11-05T11:29:09.405Z,7.43
2022-11-05T11:31:42.233Z,6.93
2022-11-05T11:34:19.966Z,6.73
2022-11-05T11:36:51.706Z,4.30
2022-11-05T11:39:25.583Z,4.97
2022-11-05T11:41:57.781Z,6.17
2022-11-05T11:44:33.218Z,6.03
2022-11-05T11:47:07.779Z,5.60
2022-11-05T11:49:45.492Z,6.47
2022-11-05T11:52:19.772Z,4.50
2022-11-05T11:54:49.839Z,5.17
2022-11-05T11:57:25.361Z,4.40
2022-11-05T12:00:09.161Z,6.20
2022-11-05T12:03:02.642Z,6.00
2022-11-05T12:05:46.449Z,4.00
2022-11-05T12:08:32.545Z,4.60
2022-11-05T12:11:09.423Z,4.47
2022-11-05T12:14:04.554Z,3.93
2022-11-05T12:17:07.602Z,4.17
2022-11-05T12:20:25.081Z,3.50
2022-11-05T12:23:24.696Z,3.27
2022-11-05T12:25:59.855Z,3.63
2022-11-05T12:29:17.751Z,4.60
2022-11-05T12:31:57.876Z,4.20
2022-11-05T12:34:41.626Z,4.03
2022-11-05T12:37:23.268Z,3.90
2022-11-05T12:40:20.881Z,4.13
2022-11-05T12:43:10.611Z,3.40
2022-11-05T12:45:49.649Z,2.60
2022-11-05T12:48:45.424Z,3.00
2022-11-05T12:51:29.159Z,3.03
2022-11-05T12:54:20.177Z,2.60
2022-11-05T12:56:58.223Z,2.30
2022-11-05T12:59:34.269Z,1.70
2022-11-05T13:02:13.459Z,2.17
2022-11-05T13:04:48.984Z,2.10
2022-11-05T13:07:25.730Z,2.30
2022-11-05T13:10:00.015Z,2.10
2022-11-05T13:12:38.105Z,2.20
2022-11-05T13:15:27.070Z,2.50
2022-11-05T13:18:01.195Z,2.30
2022-11-05T13:20:35.031Z,2.20
2022-11-05T13:23:16.242Z,2.20
2022-11-05T13:25:52.302Z,2.27
2022-11-05T13:28:35.622Z,2.00
2022-11-05T13:31:08.612Z,2.00
2022-11-05T13:33:42.075Z,2.47
2022-11-05T13:36:28.633Z,2.50
2022-11-05T13:39:09.251Z,3.60
2022-11-05T13:41:57.395Z,3.13
2022-11-05T13:44:52.968Z,2.70
2022-11-05T13:47:39.720Z,2.40
2022-11-05T13:50:31.581Z,2.07
2022-11-05T13:53:29.968Z,2.03
2022-11-05T13:56:05.357Z,2.57
2022-11-05T13:58:47.954Z,1.83
2022-11-05T14:01:32.921Z,2.03
2022-11-05T14:04:03.487Z,1.87
2022-11-05T14:06:36.923Z,2.30
2022-11-05T14:09:14.143Z,1.60
2022-11-05T14:11:51.147Z,1.50
2022-11-05T14:14:25.478Z,1.93
2022-11-05T14:17:15.932Z,1.90
2022-11-05T14:20:25.851Z,1.70
2022-11-05T14:22:56.790Z,1.80
2022-11-05T14:26:04.051Z,1.70
2022-11-05T14:28:44.934Z,1.83
2022-11-05T14:32:12.046Z,1.40
2022-11-05T14:34:51.303Z,1.20
2022-11-05T14:37:27.294Z,1.50
2022-11-05T14:39:58.223Z,1.40
2022-11-05T14:42:31.171Z,1.47
2022-11-05T14:45:30.325Z,1.90
2022-11-05T14:48:02.404Z,1.73
2022-11-05T14:50:42.042Z,1.67
2022-11-05T14:53:27.987Z,1.43
2022-11-05T14:56:05.713Z,1.73
2022-11-05T14:58:38.944Z,1.77
2022-11-05T15:01:10.691Z,1.37
2022-11-05T15:04:04.014Z,1.27
2022-11-05T15:06:38.529Z,1.60
2022-11-05T15:09:31.950Z,1.73
2022-11-05T15:12:14.282Z,1.57
2022-11-05T15:14:56.148Z,1.67
2022-11-05T15:17:30.783Z,1.97
2022-11-05T15:20:11.220Z,1.20
2022-11-05T15:22:46.335Z,1.87
2022-11-05T15:25:20.746Z,1.47
2022-11-05T15:28:01.547Z,1.43
2022-11-05T15:30:31.527Z,1.63
2022-11-05T15:33:13.208Z,1.73
2022-11-05T15:35:44.514Z,1.33
2022-11-05T15:38:35.972Z,1.47
2022-11-05T15:41:08.740Z,1.37
2022-11-05T15:43:48.051Z,1.87
2022-11-05T15:46:20.697Z,1.50
2022-11-05T15:48:57.260Z,1.90
2022-11-05T15:51:29.149Z,2.30
2022-11-05T15:56:58.660Z,1.83
2022-11-05T15:59:32.380Z,2.10
2022-11-05T16:02:08.856Z,1.73
2022-11-05T16:04:39.825Z,1.70
2022-11-05T16:07:12.305Z,1.73
2022-11-05T16:09:53.696Z,1.87
2022-11-05T16:12:34.298Z,2.00
2022-11-05T16:15:23.302Z,1.90
2022-11-05T16:17:57.916Z,2.13
2022-11-05T16:20:32.671Z,1.77
2022-11-05T16:23:04.480Z,1.83
2022-11-05T16:25:47.264Z,1.40
2022-11-05T16:28:26.367Z,1.50
2022-11-05T16:30:58.516Z,1.53
2022-11-05T16:33:34.360Z,1.60
2022-11-05T16:36:04.433Z,2.00
2022-11-05T16:38:35.395Z,1.67
2022-11-05T16:41:08.149Z,2.70
2022-11-05T16:43:38.569Z,2.57
2022-11-05T16:46:09.482Z,1.80
2022-11-05T16:48:39.870Z,2.30
2022-11-05T16:51:12.152Z,2.60
2022-11-05T16:53:44.633Z,2.33
2022-11-05T16:56:22.969Z,2.57
2022-11-05T16:58:53.985Z,2.97
2022-11-05T17:01:26.964Z,2.67
2022-11-05T17:03:59.094Z,2.13
2022-11-05T17:06:29.014Z,2.37
2022-11-05T17:08:59.294Z,1.90
2022-11-05T17:11:32.701Z,2.10
2022-11-05T17:14:02.957Z,2.30
2022-11-05T17:16:32.917Z,1.40
2022-11-05T17:19:03.241Z,2.33
2022-11-05T17:21:33.758Z,2.30
2022-11-05T17:24:05.509Z,2.60
2022-11-05T17:26:38.708Z,2.40
2022-11-05T17:29:09.253Z,2.50
2022-11-05T17:31:41.613Z,2.70
2022-11-05T17:34:12.515Z,2.47
2022-11-05T17:36:43.478Z,3.50
2022-11-05T17:39:16.958Z,2.47
2022-11-05T17:41:50.049Z,2.90
2022-11-05T17:44:20.663Z,1.93
2022-11-05T17:46:51.274Z,2.90
2022-11-05T17:49:21.280Z,2.57
2022-11-05T17:51:51.533Z,2.20
2022-11-05T17:54:23.011Z,2.60
2022-11-05T17:56:57.751Z,2.83
2022-11-05T17:59:31.168Z,2.97
2022-11-05T18:02:01.491Z,2.00
2022-11-05T18:04:32.641Z,2.90
2022-11-05T18:07:03.371Z,3.47
2022-11-05T18:09:34.361Z,2.30
2022-11-05T18:12:07.802Z,1.87
2022-11-05T18:14:38.195Z,2.60
2022-11-05T18:17:08.879Z,3.47
2022-11-05T18:19:40.263Z,2.43
2022-11-05T18:22:10.352Z,2.63
2022-11-05T18:24:41.008Z,2.50
2022-11-05T18:27:13.797Z,1.97
2022-11-05T18:29:44.349Z,2.57
2022-11-05T18:32:14.579Z,2.67
2022-11-05T18:34:45.514Z,2.90
2022-11-05T18:37:15.504Z,3.20
2022-11-05T18:39:46.976Z,2.77
2022-11-05T18:42:19.641Z,2.60
2022-11-05T18:44:50.362Z,2.13
2022-11-05T18:47:20.611Z,2.70
2022-11-05T18:49:51.054Z,2.50
2022-11-05T18:52:20.914Z,1.93
2022-11-05T18:54:51.157Z,3.60
2022-11-05T18:57:24.678Z,2.50
2022-11-05T18:59:55.293Z,2.93
2022-11-05T19:02:26.343Z,2.40
2022-11-05T19:07:47.329Z,2.83
2022-11-05T19:10:17.589Z,2.50
2022-11-05T19:12:51.359Z,2.00
2022-11-05T19:15:21.778Z,2.17
2022-11-05T19:17:52.127Z,3.23
2022-11-05T19:20:22.248Z,3.10
2022-11-05T19:22:52.746Z,3.70
2022-11-05T19:25:22.785Z,3.50
2022-11-05T19:27:58.478Z,3.40
2022-11-05T19:30:29.115Z,3.53
2022-11-05T19:33:00.080Z,2.70
2022-11-05T19:35:30.041Z,2.80
2022-11-05T19:38:00.745Z,3.67
2022-11-05T19:40:31.052Z,3.20
2022-11-05T19:43:04.500Z,2.53
2022-11-05T19:45:49.823Z,3.63
2022-11-05T19:48:21.400Z,2.63
2022-11-05T19:50:51.544Z,3.33
2022-11-05T19:53:22.362Z,4.00
2022-11-05T19:55:52.535Z,4.07
2022-11-05T19:58:26.012Z,3.87
2022-11-05T20:00:58.700Z,3.07
2022-11-05T20:03:29.640Z,3.50
2022-11-05T20:06:11.536Z,4.23
2022-11-05T20:08:59.848Z,2.63
2022-11-05T20:11:32.446Z,4.27
2022-11-05T20:14:05.106Z,2.93
2022-11-05T20:16:38.209Z,4.60
2022-11-05T20:19:09.580Z,3.23
2022-11-05T20:21:39.805Z,4.10
2022-11-05T20:24:11.200Z,4.30
2022-11-05T20:26:42.371Z,3.80
2022-11-05T20:29:15.606Z,4.60
2022-11-05T20:31:45.701Z,4.17
2022-11-05T20:34:15.642Z,4.33
2022-11-05T20:36:45.837Z,4.20
2022-11-05T20:39:15.938Z,5.47
2022-11-05T20:41:46.563Z,4.47
2022-11-05T20:44:19.091Z,4.83
2022-11-05T20:46:49.288Z,3.93
2022-11-05T20:49:24.922Z,4.00
2022-11-05T20:51:56.036Z,4.10
2022-11-05T20:54:26.840Z,5.03
2022-11-05T20:56:57.031Z,4.57
2022-11-05T20:59:29.549Z,5.33
2022-11-05T21:02:00.081Z,3.90
2022-11-05T21:04:30.031Z,4.23
2022-11-05T21:07:01.152Z,4.37
2022-11-05T21:09:31.254Z,4.63
2022-11-05T21:12:14.174Z,4.93
2022-11-05T21:14:47.133Z,4.77
2022-11-05T21:17:17.607Z,4.63
2022-11-05T21:19:47.638Z,4.47
2022-11-05T21:22:18.432Z,3.93
2022-11-05T21:24:48.299Z,4.63
2022-11-05T21:27:18.500Z,3.83
2022-11-05T21:29:51.019Z,3.10
2022-11-05T21:32:21.360Z,3.80
2022-11-05T21:34:51.239Z,3.17
2022-11-05T21:37:22.258Z,4.60
2022-11-05T21:39:52.438Z,3.77
2022-11-05T21:42:23.055Z,3.77
2022-11-05T21:45:00.178Z,4.77
2022-11-05T21:47:31.520Z,3.87
2022-11-05T21:50:03.814Z,4.07
2022-11-05T21:52:46.535Z,4.13
2022-11-05T21:55:38.362Z,4.33
2022-11-05T21:58:28.782Z,4.13
2022-11-05T22:01:02.673Z,3.90
2022-11-05T22:03:32.582Z,4.03
2022-11-05T22:06:02.933Z,4.07
2022-11-05T22:08:32.816Z,3.80
2022-11-05T22:11:06.378Z,3.83
2022-11-05T22:13:36.343Z,3.97
2022-11-05T22:16:10.335Z,4.13
2022-11-05T22:18:40.220Z,3.40
2022-11-05T22:21:10.497Z,4.27
2022-11-05T22:23:40.425Z,2.70
2022-11-05T22:26:10.566Z,3.50
2022-11-05T22:28:40.884Z,3.90
2022-11-05T22:31:18.409Z,3.60
2022-11-05T22:33:48.346Z,3.90
2022-11-05T22:36:18.949Z,3.37
2022-11-05T22:38:48.850Z,3.80
2022-11-05T22:41:22.347Z,4.10
2022-11-05T22:43:52.574Z,3.70
2022-11-05T22:46:27.816Z,3.23
2022-11-05T22:48:58.325Z,3.90
2022-11-05T22:51:31.452Z,4.10
2022-11-05T22:54:01.911Z,3.13
2022-11-05T22:56:35.370Z,3.67
2022-11-05T22:59:05.938Z,3.33
2022-11-05T23:01:39.254Z,3.90
2022-11-05T23:04:10.349Z,3.63
2022-11-05T23:06:53.171Z,2.97
2022-11-05T23:09:37.811Z,3.43
2022-11-05T23:12:22.457Z,3.60
2022-11-05T23:14:52.651Z,3.50
2022-11-05T23:17:38.514Z,3.70
2022-11-05T23:20:23.570Z,2.87
2022-11-05T23:23:06.750Z,3.50
2022-11-05T23:25:36.694Z,2.70
2022-11-05T23:28:13.879Z,3.50
2022-11-05T23:30:59.044Z,3.93
2022-11-05T23:33:35.313Z,4.30
2022-11-05T23:36:18.417Z,3.00
2022-11-05T23:38:48.558Z,3.70
2022-11-05T23:41:31.603Z,3.00
2022-11-05T23:44:13.938Z,3.67
2022-11-05T23:46:56.855Z,4.30
2022-11-05T23:49:29.864Z,2.67
2022-11-05T23:52:00.412Z,4.33
2022-11-05T23:54:30.320Z,3.87
2022-11-05T23:57:00.986Z,4.07
2022-11-05T23:59:30.940Z,4.10
